Time;durP1;ratioP1;P1;durP2;ratioP2;P2;SDS_P1;SDS_P2;PMS_P1;PMS_P2;Temp;Humidity;BMP_temperature;BMP_pressure;BME280_temperature;BME280_humidity;BME280_pressure;Samples;Min_cycle;Max_cycle;Signal;HPM_P1;HPM_P2
2022/11/02 00:01:22;;;;;;;12.48;2.42;;;;;;;12.59;81.63;101379.06;5013217;28;20028;-73
2022/11/02 00:03:47;;;;;;;11.20;2.05;;;;;;;12.65;80.84;101378.66;5012757;28;20030;-74
2022/11/02 00:06:12;;;;;;;11.43;2.08;;;;;;;12.70;80.72;101378.38;5012045;28;20125;-77
2022/11/02 00:08:38;;;;;;;10.13;1.88;;;;;;;12.69;80.70;101374.94;5012567;28;20026;-78
2022/11/02 00:11:03;;;;;;;11.10;2.45;;;;;;;12.75;79.96;101384.91;5013078;28;20432;-85
2022/11/02 00:13:29;;;;;;;11.63;2.20;;;;;;;12.79;79.85;101394.19;5012841;28;20026;-85
2022/11/02 00:15:54;;;;;;;9.13;2.20;;;;;;;12.83;80.09;101389.63;5012922;28;20034;-85
2022/11/02 00:18:20;;;;;;;10.13;1.85;;;;;;;12.79;79.68;101380.38;5013046;28;20026;-83
2022/11/02 00:20:46;;;;;;;11.13;2.38;;;;;;;12.81;79.42;101379.34;5012572;28;20105;-80
2022/11/02 00:23:13;;;;;;;11.57;2.10;;;;;;;12.84;79.73;101392.09;5012435;28;20111;-83
2022/11/02 00:25:42;;;;;;;7.55;1.73;;;;;;;12.80;79.29;101382.03;5015756;28;20474;-85
2022/11/02 00:28:08;;;;;;;6.88;1.85;;;;;;;12.64;80.01;101344.13;5015815;28;20025;-84
2022/11/02 00:30:33;;;;;;;9.30;1.95;;;;;;;12.89;79.37;101382.28;5016237;28;20528;-85
2022/11/02 00:32:59;;;;;;;11.77;2.45;;;;;;;12.85;79.10;101365.25;5015960;28;20048;-85
2022/11/02 00:35:24;;;;;;;9.57;1.88;;;;;;;12.95;78.82;101386.25;5015897;28;20469;-84
2022/11/02 00:37:49;;;;;;;10.85;2.10;;;;;;;12.91;78.93;101374.41;5015870;28;20521;-84
2022/11/02 00:40:16;;;;;;;9.85;2.05;;;;;;;12.99;78.49;101381.72;5015741;28;20026;-83
2022/11/02 00:42:41;;;;;;;8.45;1.88;;;;;;;13.02;77.95;101389.28;5015865;28;20021;-84
2022/11/02 00:45:07;;;;;;;9.18;1.83;;;;;;;13.01;77.72;101385.03;5015655;28;20036;-82
2022/11/02 00:47:32;;;;;;;8.40;1.85;;;;;;;13.03;77.34;101385.75;5015774;28;20057;-79
2022/11/02 00:49:58;;;;;;;10.10;2.00;;;;;;;12.91;77.58;101374.41;5015683;28;20029;-83
2022/11/02 00:52:23;;;;;;;10.45;2.20;;;;;;;13.05;77.28;101387.31;5015248;28;20468;-82
2022/11/02 00:54:48;;;;;;;11.80;1.90;;;;;;;13.01;76.90;101385.84;5015510;28;20051;-82
2022/11/02 00:57:14;;;;;;;8.85;1.80;;;;;;;12.95;77.54;101400.97;5015768;28;20053;-82
2022/11/02 00:59:39;;;;;;;10.07;1.88;;;;;;;12.79;77.74;101399.34;5015327;28;20493;-81
2022/11/02 01:02:04;;;;;;;11.27;2.05;;;;;;;12.53;78.41;101379.41;5015521;28;20105;-84
2022/11/02 01:04:29;;;;;;;10.50;2.38;;;;;;;12.31;79.35;101365.22;5015321;28;20540;-85
2022/11/02 01:06:55;;;;;;;8.05;1.80;;;;;;;12.46;78.97;101411.81;5015287;28;20084;-82
2022/11/02 01:09:20;;;;;;;6.22;1.67;;;;;;;12.38;79.54;101401.06;5015243;28;20176;-84
2022/11/02 01:11:46;;;;;;;6.72;1.65;;;;;;;12.27;80.34;101399.97;5015208;28;20034;-84
2022/11/02 01:14:11;;;;;;;8.80;2.17;;;;;;;12.34;79.25;101415.97;5014941;28;20117;-81
2022/11/02 01:16:39;;;;;;;10.20;1.92;;;;;;;12.29;79.06;101415.41;5015212;28;20165;-83
2022/11/02 01:19:04;;;;;;;10.13;2.03;;;;;;;12.27;78.82;101423.28;5014900;28;20440;-84
2022/11/02 01:21:29;;;;;;;7.15;1.88;;;;;;;12.25;79.22;101429.47;5015094;28;20121;-83
2022/11/02 01:23:55;;;;;;;9.10;1.85;;;;;;;12.21;78.92;101428.03;5013841;28;20088;-85
2022/11/02 01:26:20;;;;;;;8.60;2.03;;;;;;;12.13;78.68;101422.47;5013909;28;20117;-81
2022/11/02 01:28:45;;;;;;;7.03;1.73;;;;;;;12.06;78.98;101422.81;5014620;28;20042;-84
2022/11/02 01:31:11;;;;;;;6.22;1.70;;;;;;;12.05;79.21;101431.50;5015219;28;20033;-85
2022/11/02 01:33:41;;;;;;;11.73;2.03;;;;;;;11.98;80.27;101424.19;5014570;28;20022;-85
2022/11/02 01:36:07;;;;;;;8.38;1.70;;;;;;;11.68;79.26;101387.97;5014514;28;20034;-85
2022/11/02 01:38:32;;;;;;;8.20;1.70;;;;;;;11.75;78.83;101403.06;5014840;28;20476;-84
2022/11/02 01:40:58;;;;;;;6.70;1.58;;;;;;;11.90;78.80;101434.19;5014792;28;20033;-79
2022/11/02 01:43:33;;;;;;;9.88;2.25;;;;;;;11.92;78.93;101433.16;5014606;28;20045;-82
2022/11/02 01:46:10;;;;;;;9.70;1.67;;;;;;;11.96;78.42;101444.16;5014514;28;20068;-83
2022/11/02 01:48:43;;;;;;;7.25;1.90;;;;;;;11.95;77.97;101432.16;5014324;28;20452;-83
2022/11/02 01:51:12;;;;;;;8.35;2.17;;;;;;;11.95;78.15;101439.91;5014425;28;20029;-81
2022/11/02 01:53:43;;;;;;;6.95;1.70;;;;;;;11.86;78.06;101443.88;5014146;28;20085;-78
2022/11/02 01:56:11;;;;;;;6.18;1.50;;;;;;;11.80;78.36;101436.47;5013119;28;20046;-76
2022/11/02 01:58:37;;;;;;;6.55;1.35;;;;;;;11.81;78.72;101448.50;5014457;28;20378;-83
2022/11/02 02:01:02;;;;;;;8.23;1.48;;;;;;;11.73;78.89;101428.19;5013961;28;20052;-80
2022/11/02 02:03:31;;;;;;;10.00;1.60;;;;;;;11.87;78.39;101455.88;5014292;28;20029;-74
2022/11/02 02:06:01;;;;;;;7.57;1.35;;;;;;;11.97;78.59;101457.00;5014176;28;20034;-79
2022/11/02 02:08:27;;;;;;;8.77;1.50;;;;;;;12.06;79.01;101455.63;5014133;28;20022;-79
2022/11/02 02:10:57;;;;;;;9.48;1.67;;;;;;;12.05;81.43;101453.97;5014103;28;20087;-82
2022/11/02 02:13:25;;;;;;;8.95;1.85;;;;;;;11.94;82.76;101439.09;5014228;28;20029;-78
2022/11/02 02:16:09;;;;;;;7.63;1.58;;;;;;;11.96;81.19;101449.34;5013816;28;20477;-75
2022/11/02 02:18:46;;;;;;;8.45;1.98;;;;;;;11.90;82.22;101453.13;5014068;28;20073;-81
2022/11/02 02:21:30;;;;;;;9.98;2.15;;;;;;;11.85;80.29;101438.78;5013932;28;20088;-79
2022/11/02 02:24:29;;;;;;;7.80;1.48;;;;;;;11.77;80.00;101445.19;5013996;28;20030;-72
2022/11/02 02:27:06;;;;;;;9.25;1.70;;;;;;;11.64;80.26;101457.19;5013051;28;20184;-72
2022/11/02 02:29:45;;;;;;;8.32;1.60;;;;;;;11.45;80.28;101430.72;5013440;28;20041;-72
2022/11/02 02:32:24;;;;;;;9.07;1.55;;;;;;;11.46;80.59;101447.88;5013799;28;20140;-72
2022/11/02 02:34:57;;;;;;;10.50;1.95;;;;;;;11.30;81.63;101437.56;5013682;28;20033;-72
2022/11/02 02:37:38;;;;;;;9.70;1.88;;;;;;;11.30;82.83;101447.91;5013707;28;20034;-73
2022/11/02 02:40:12;;;;;;;8.63;1.92;;;;;;;11.29;81.73;101446.25;5013559;28;20026;-71
2022/11/02 02:42:52;;;;;;;10.98;1.98;;;;;;;11.25;81.47;101447.34;5013666;28;20022;-73
2022/11/02 02:45:21;;;;;;;7.65;1.40;;;;;;;11.31;81.43;101453.94;5013347;28;20030;-71
2022/11/02 02:48:01;;;;;;;7.00;1.30;;;;;;;11.28;81.51;101461.84;5012723;28;20030;-71
2022/11/02 02:50:33;;;;;;;8.25;1.88;;;;;;;11.19;81.78;101452.84;5013341;28;20037;-73
2022/11/02 02:53:02;;;;;;;9.60;1.80;;;;;;;11.14;82.96;101455.69;5013255;28;20095;-78
2022/11/02 02:55:33;;;;;;;10.40;2.13;;;;;;;11.11;82.77;101455.88;5013359;28;20029;-75
2022/11/02 02:58:01;;;;;;;12.87;2.13;;;;;;;11.07;82.82;101453.53;5013481;28;20469;-73
2022/11/02 03:00:29;;;;;;;8.60;1.65;;;;;;;11.01;82.96;101461.59;5013247;28;20641;-71
2022/11/02 03:02:59;;;;;;;14.13;2.22;;;;;;;10.95;83.58;101462.78;5013348;28;20029;-73
2022/11/02 03:05:35;;;;;;;7.13;1.48;;;;;;;10.85;83.74;101446.97;5013271;28;20053;-75
2022/11/02 03:08:10;;;;;;;11.88;2.10;;;;;;;10.84;84.35;101447.03;5013316;28;20440;-75
2022/11/02 03:10:51;;;;;;;8.90;1.52;;;;;;;10.91;83.93;101462.13;5013163;28;20477;-74
2022/11/02 03:13:47;;;;;;;12.10;2.45;;;;;;;10.87;84.00;101467.53;5013195;28;20030;-74
2022/11/02 03:16:18;;;;;;;13.77;2.63;;;;;;;10.81;84.06;101467.84;5012986;28;20470;-72
2022/11/02 03:19:21;;;;;;;11.50;1.80;;;;;;;10.76;84.18;101460.38;5013130;28;20049;-76
2022/11/02 03:21:54;;;;;;;12.93;2.03;;;;;;;10.74;83.67;101443.28;5013243;28;20504;-72
2022/11/02 03:24:28;;;;;;;11.50;2.53;;;;;;;10.76;83.38;101449.19;5013163;28;20057;-72
2022/11/02 03:27:12;;;;;;;11.82;2.33;;;;;;;10.81;82.93;101457.53;5011875;28;20034;-72
2022/11/02 03:29:47;;;;;;;9.77;1.92;;;;;;;10.93;84.15;101471.56;5013143;28;20118;-72
2022/11/02 03:32:21;;;;;;;13.35;2.63;;;;;;;10.93;82.19;101480.13;5013400;28;20037;-72
2022/11/02 03:34:51;;;;;;;12.50;2.05;;;;;;;11.00;82.55;101485.78;5012971;28;20384;-71
2022/11/02 03:37:38;;;;;;;11.77;2.70;;;;;;;11.03;82.70;101476.13;5013013;28;20037;-72
2022/11/02 03:40:05;;;;;;;14.75;2.67;;;;;;;11.08;81.81;101487.03;5012794;28;20061;-72
2022/11/02 03:42:33;;;;;;;12.70;2.88;;;;;;;11.08;81.58;101479.28;4997629;28;20043;-72
2022/11/02 03:45:06;;;;;;;10.77;2.08;;;;;;;11.11;82.31;101479.16;4993317;28;20125;-72
2022/11/02 03:47:32;;;;;;;10.35;2.15;;;;;;;11.08;82.51;101484.47;4993301;28;20027;-73
2022/11/02 03:50:01;;;;;;;13.77;2.80;;;;;;;10.87;81.79;101470.13;4993376;28;20382;-72
2022/11/02 03:52:30;;;;;;;10.98;2.00;;;;;;;10.95;82.09;101492.97;4993328;28;20521;-72
2022/11/02 03:55:07;;;;;;;12.30;2.25;;;;;;;10.88;82.08;101497.63;4993110;28;20117;-73
2022/11/02 03:57:43;;;;;;;14.73;2.30;;;;;;;10.87;82.53;101490.78;4993584;28;20443;-73
2022/11/02 04:00:20;;;;;;;15.52;2.70;;;;;;;10.89;82.14;101507.88;4997337;28;20117;-74
2022/11/02 04:02:48;;;;;;;13.48;2.55;;;;;;;10.76;82.40;101486.19;4996913;28;20096;-72
2022/11/02 04:05:14;;;;;;;12.48;2.67;;;;;;;10.81;82.24;101493.69;4996871;28;20394;-72
2022/11/02 04:10:27;;;;;;;13.90;2.20;;;;;;;10.90;82.31;101506.94;4996640;28;20042;-74
2022/11/02 04:15:36;;;;;;;14.95;2.78;;;;;;;10.80;82.97;101528.19;4997035;28;20037;-73
2022/11/02 04:20:50;;;;;;;13.80;2.35;;;;;;;10.82;83.01;101534.97;4996532;28;20077;-73
2022/11/02 04:25:59;;;;;;;14.93;2.97;;;;;;;10.70;83.52;101532.19;4996564;28;20112;-72
2022/11/02 04:28:25;;;;;;;18.23;2.55;;;;;;;10.72;83.57;101536.38;4996506;28;20470;-72
2022/11/02 04:30:50;;;;;;;12.45;2.65;;;;;;;10.82;83.59;101544.47;4996493;28;20065;-72
2022/11/02 04:33:34;;;;;;;13.48;2.10;;;;;;;10.79;84.14;101557.53;4996152;28;20034;-72
2022/11/02 04:36:00;;;;;;;11.88;2.33;;;;;;;10.91;83.91;101562.06;4996257;28;20105;-73
2022/11/02 04:38:41;;;;;;;14.70;2.33;;;;;;;11.04;83.04;101562.25;4996186;28;20025;-72
2022/11/02 04:44:03;;;;;;;16.98;2.95;;;;;;;11.10;82.16;101570.50;5016074;28;20068;-74
2022/11/02 04:46:30;;;;;;;11.15;2.38;;;;;;;10.88;82.13;101552.72;5015734;28;20022;-72
2022/11/02 04:48:55;;;;;;;9.82;2.03;;;;;;;10.98;82.36;101560.81;5015239;28;20493;-72
2022/11/02 04:51:22;;;;;;;12.65;2.30;;;;;;;10.89;82.67;101576.81;5015827;28;20022;-85
2022/11/02 04:53:48;;;;;;;18.90;2.45;;;;;;;11.04;82.75;101593.28;5015715;28;20054;-83
2022/11/02 04:56:13;;;;;;;14.18;2.45;;;;;;;11.06;82.78;101600.03;5015630;28;20083;-85
2022/11/02 04:58:39;;;;;;;17.15;2.88;;;;;;;10.95;82.57;101594.59;5015483;28;20029;-86
2022/11/02 05:01:11;;;;;;;14.52;2.85;;;;;;;10.94;82.00;101592.91;5015510;28;20030;-84
2022/11/02 05:03:36;;;;;;;13.40;2.15;;;;;;;11.03;82.01;101595.03;5015474;28;20088;-83
2022/11/02 05:06:02;;;;;;;18.52;2.30;;;;;;;10.96;81.98;101595.41;5015352;28;20025;-76
2022/11/02 05:08:27;;;;;;;12.70;2.13;;;;;;;10.99;81.95;101600.41;5015327;28;20041;-82
2022/11/02 05:10:54;;;;;;;11.95;2.30;;;;;;;11.13;82.02;101622.06;5014587;28;20033;-84
2022/11/02 05:13:19;;;;;;;10.75;2.67;;;;;;;11.11;81.81;101613.56;5015149;28;20021;-86
2022/11/02 05:15:45;;;;;;;13.10;2.47;;;;;;;11.20;81.48;101628.56;5015430;28;20393;-83
2022/11/02 05:18:10;;;;;;;15.82;2.72;;;;;;;11.22;81.80;101628.50;5015048;28;20033;-86
2022/11/02 05:20:35;;;;;;;12.25;2.67;;;;;;;11.22;80.89;101630.25;5015241;28;20029;-82
2022/11/02 05:23:01;;;;;;;10.45;2.72;;;;;;;11.24;80.86;101638.75;5014995;28;20053;-79
2022/11/02 05:25:26;;;;;;;16.60;3.00;;;;;;;11.17;80.53;101636.47;5015099;28;20038;-81
2022/11/02 05:27:51;;;;;;;13.60;2.60;;;;;;;11.20;80.80;101646.66;5014940;28;20049;-76
2022/11/02 05:30:16;;;;;;;14.32;2.83;;;;;;;11.20;80.90;101654.41;5014800;28;20064;-71
2022/11/02 05:32:42;;;;;;;10.15;2.30;;;;;;;11.15;80.32;101660.75;5014781;28;20018;-75
2022/11/02 05:35:08;;;;;;;18.20;3.03;;;;;;;11.14;80.73;101654.75;5014645;28;20025;-77
2022/11/02 05:37:33;;;;;;;12.70;2.28;;;;;;;11.08;81.07;101673.16;5014893;28;20109;-73
2022/11/02 05:39:59;;;;;;;14.98;2.58;;;;;;;10.96;81.42;101670.38;5015049;28;20113;-76
2022/11/02 05:42:27;;;;;;;13.07;2.58;;;;;;;10.95;81.56;101676.44;5014761;28;20026;-74
2022/11/02 05:44:52;;;;;;;10.43;2.50;;;;;;;10.93;81.52;101679.13;5014540;28;20069;-74
2022/11/02 05:47:17;;;;;;;14.35;2.33;;;;;;;10.90;82.13;101674.91;5014661;28;20026;-72
2022/11/02 05:49:43;;;;;;;13.63;2.75;;;;;;;10.83;81.53;101683.09;5014123;28;20072;-71
2022/11/02 05:52:08;;;;;;;18.27;2.47;;;;;;;10.75;82.10;101680.88;5014345;28;20045;-71
2022/11/02 05:54:33;;;;;;;12.25;2.63;;;;;;;10.66;82.61;101683.06;5014528;28;20061;-71
2022/11/02 05:56:58;;;;;;;12.98;2.75;;;;;;;10.67;82.19;101692.50;5014407;28;20420;-73
2022/11/02 05:59:24;;;;;;;14.75;2.75;;;;;;;10.56;82.78;101693.84;5014393;28;20087;-71
2022/11/02 06:01:49;;;;;;;13.05;2.50;;;;;;;10.54;82.69;101705.19;5014419;28;20037;-75
2022/11/02 06:04:14;;;;;;;8.93;1.60;;;;;;;10.47;84.04;101708.97;5014428;28;20032;-72
2022/11/02 06:06:40;;;;;;;13.55;2.28;;;;;;;10.28;83.44;101693.53;5014212;28;20022;-73
2022/11/02 06:09:05;;;;;;;13.70;2.05;;;;;;;10.39;83.32;101718.81;5014492;28;20026;-72
2022/11/02 06:11:30;;;;;;;13.43;2.97;;;;;;;10.25;83.31;101711.75;5014289;28;20026;-73
2022/11/02 06:13:56;;;;;;;14.75;2.80;;;;;;;10.13;84.61;101704.53;5014041;28;20474;-73
2022/11/02 06:16:21;;;;;;;10.70;2.13;;;;;;;10.23;84.71;101732.47;5013930;28;20021;-72
2022/11/02 06:18:47;;;;;;;9.23;2.05;;;;;;;10.19;84.44;101738.63;5014285;28;20026;-73
2022/11/02 06:21:12;;;;;;;14.02;2.47;;;;;;;10.01;85.47;101716.25;5013821;28;20026;-78
2022/11/02 06:23:38;;;;;;;15.85;2.58;;;;;;;10.10;86.43;101736.47;5014237;28;20026;-72
2022/11/02 06:26:03;;;;;;;12.57;2.40;;;;;;;9.97;85.83;101731.06;5014044;28;20183;-72
2022/11/02 06:28:29;;;;;;;10.85;2.13;;;;;;;10.01;85.98;101754.97;5013693;28;20054;-73
2022/11/02 06:30:55;;;;;;;14.98;2.55;;;;;;;9.71;85.89;101729.66;5013699;28;20029;-73
2022/11/02 06:33:21;;;;;;;15.43;2.38;;;;;;;9.91;86.86;101772.63;5013824;28;20030;-85
2022/11/02 06:35:50;;;;;;;15.65;2.67;;;;;;;9.87;86.72;101776.25;5013533;28;20026;-73
2022/11/02 06:38:16;;;;;;;11.75;2.05;;;;;;;9.86;87.17;101782.31;5013952;28;20037;-84
2022/11/02 06:40:42;;;;;;;11.60;2.10;;;;;;;9.77;87.11;101782.72;5013688;28;20473;-76
2022/11/02 06:43:07;;;;;;;11.20;2.25;;;;;;;9.71;87.33;101770.91;5013547;28;20037;-78
2022/11/02 06:45:33;;;;;;;12.38;2.20;;;;;;;9.72;87.12;101785.50;5013519;28;20474;-73
2022/11/02 06:47:58;;;;;;;13.02;2.33;;;;;;;9.79;87.92;101819.59;5013487;28;20022;-83
2022/11/02 06:50:24;;;;;;;14.73;2.40;;;;;;;9.70;87.94;101799.38;5013414;28;20030;-83
2022/11/02 06:52:51;;;;;;;11.55;2.33;;;;;;;9.91;88.31;101820.78;5013474;28;20077;-73
2022/11/02 06:55:17;;;;;;;13.30;2.33;;;;;;;9.91;87.29;101829.38;5013421;28;20109;-75
2022/11/02 06:57:43;;;;;;;11.43;2.22;;;;;;;9.88;87.72;101832.09;5013357;28;20034;-75
2022/11/02 07:00:16;;;;;;;12.98;2.72;;;;;;;9.80;87.22;101834.16;5013383;28;20034;-83
2022/11/02 07:02:42;;;;;;;12.77;2.10;;;;;;;9.85;87.38;101846.88;5013339;28;20026;-80
2022/11/02 07:05:07;;;;;;;9.73;1.80;;;;;;;9.72;87.53;101831.91;5013095;28;20376;-72
2022/11/02 07:07:32;;;;;;;13.00;2.13;;;;;;;9.81;87.41;101858.22;5013259;28;20038;-73
2022/11/02 07:09:58;;;;;;;14.88;2.45;;;;;;;9.78;87.35;101854.03;5013145;28;20377;-74
2022/11/02 07:12:23;;;;;;;12.68;2.17;;;;;;;9.84;87.44;101869.28;5011954;28;20072;-73
2022/11/02 07:14:48;;;;;;;13.35;2.45;;;;;;;9.92;87.63;101877.50;5013212;28;20033;-84
2022/11/02 07:17:14;;;;;;;10.63;2.13;;;;;;;9.99;86.87;101889.22;5013026;28;20034;-81
2022/11/02 07:19:39;;;;;;;9.75;1.85;;;;;;;10.07;86.58;101892.31;5013222;28;20065;-83
2022/11/02 07:22:05;;;;;;;10.95;2.20;;;;;;;10.13;86.37;101893.81;5012901;28;20065;-72
2022/11/02 07:24:30;;;;;;;12.77;3.28;;;;;;;9.97;86.03;101866.97;5013242;28;20120;-75
2022/11/02 07:26:55;;;;;;;12.48;2.35;;;;;;;9.96;85.84;101884.22;5013130;28;20022;-79
2022/11/02 07:29:21;;;;;;;10.07;1.92;;;;;;;10.06;86.26;101905.28;5013080;28;20367;-77
2022/11/02 07:31:46;;;;;;;14.65;2.53;;;;;;;10.05;86.88;101912.19;5013018;28;20045;-81
2022/11/02 07:34:12;;;;;;;9.70;1.83;;;;;;;10.09;86.54;101912.06;5016184;28;20021;-78
2022/11/02 07:36:38;;;;;;;13.00;2.67;;;;;;;10.10;86.25;101908.56;5016771;28;20037;-85
2022/11/02 07:39:05;;;;;;;12.88;2.88;;;;;;;10.23;86.58;101914.91;5017007;28;20037;-77
2022/11/02 07:41:30;;;;;;;8.10;2.35;;;;;;;10.22;85.37;101898.56;5017055;28;20477;-75
2022/11/02 07:43:56;;;;;;;10.52;2.42;;;;;;;10.21;85.00;101896.03;5016998;28;20033;-78
2022/11/02 07:46:21;;;;;;;15.13;2.72;;;;;;;10.23;85.83;101910.59;5016835;28;20585;-79
2022/11/02 07:48:47;;;;;;;11.63;2.80;;;;;;;10.06;85.39;101892.38;5016558;28;20030;-79
2022/11/02 07:51:12;;;;;;;13.30;2.35;;;;;;;10.27;85.18;101934.50;5016293;28;20127;-75
2022/11/02 07:53:38;;;;;;;11.60;2.00;;;;;;;10.27;85.47;101930.19;5014837;28;20399;-74
2022/11/02 07:56:03;;;;;;;15.13;3.35;;;;;;;10.23;85.56;101923.50;5016809;28;20381;-79
2022/11/02 07:58:29;;;;;;;10.90;2.55;;;;;;;10.29;85.63;101940.44;5016608;28;20089;-81
2022/11/02 08:00:58;;;;;;;13.35;1.98;;;;;;;10.15;85.80;101914.38;5016562;28;20029;-81
2022/11/02 08:03:23;;;;;;;9.32;1.92;;;;;;;10.33;85.40;101936.84;5016521;28;20025;-76
2022/11/02 08:05:49;;;;;;;11.90;2.45;;;;;;;10.24;85.51;101932.91;5016204;28;20026;-77
2022/11/02 08:08:16;;;;;;;12.50;3.42;;;;;;;10.34;85.72;101948.84;5016717;28;20040;-77
2022/11/02 08:10:43;;;;;;;13.25;2.53;;;;;;;10.20;85.53;101930.50;5016591;28;20080;-78
2022/11/02 08:13:11;;;;;;;14.70;2.50;;;;;;;10.34;85.75;101954.84;5015215;28;20033;-75
2022/11/02 08:15:37;;;;;;;10.57;1.98;;;;;;;10.22;85.76;101931.28;5011929;28;20030;-76
2022/11/02 08:18:11;;;;;;;15.80;2.65;;;;;;;10.37;86.27;101964.19;5016426;28;20036;-77
2022/11/02 08:20:36;;;;;;;9.77;2.15;;;;;;;10.39;85.69;101962.38;5015961;28;20075;-73
2022/11/02 08:23:03;;;;;;;12.70;1.98;;;;;;;10.41;85.90;101954.56;5014063;28;20042;-75
2022/11/02 08:25:29;;;;;;;12.32;2.03;;;;;;;10.37;86.47;101953.84;5016066;28;20026;-74
2022/11/02 08:27:57;;;;;;;18.45;3.13;;;;;;;10.34;86.69;101948.84;5016198;28;20069;-73
2022/11/02 08:30:22;;;;;;;11.57;2.33;;;;;;;10.48;86.11;101966.28;5015829;28;20095;-73
2022/11/02 08:32:47;;;;;;;13.98;2.30;;;;;;;10.41;85.96;101954.56;5015957;28;20461;-75
2022/11/02 08:35:13;;;;;;;13.48;2.10;;;;;;;10.51;86.84;101972.16;5015703;28;20030;-73
2022/11/02 08:37:38;;;;;;;13.73;2.78;;;;;;;10.53;85.83;101970.38;5014542;28;20033;-72
2022/11/02 08:40:04;;;;;;;14.05;2.97;;;;;;;10.55;86.28;101970.28;5016016;28;20026;-71
2022/11/02 08:42:29;;;;;;;15.52;2.22;;;;;;;10.53;86.18;101974.69;5015885;28;20029;-71
2022/11/02 08:44:55;;;;;;;11.70;2.00;;;;;;;10.58;85.72;101986.47;5014799;28;20096;-73
2022/11/02 08:47:20;;;;;;;12.70;2.88;;;;;;;10.51;85.50;101972.16;5015515;28;20050;-73
2022/11/02 08:49:46;;;;;;;9.13;2.00;;;;;;;10.68;86.60;102001.56;5015431;28;20091;-73
2022/11/02 08:52:11;;;;;;;12.52;1.85;;;;;;;10.70;85.26;101997.16;5013488;28;20049;-73
2022/11/02 08:54:36;;;;;;;16.67;2.35;;;;;;;10.65;84.39;101978.47;5015412;28;20041;-74
2022/11/02 08:57:02;;;;;;;17.48;2.90;;;;;;;10.73;84.84;102002.22;5015184;28;20068;-72
2022/11/02 08:59:27;;;;;;;11.98;2.33;;;;;;;10.74;84.55;102001.31;5015497;28;20156;-74
2022/11/02 09:01:52;;;;;;;13.73;2.75;;;;;;;10.82;84.11;102000.06;5015379;28;20484;-75
2022/11/02 09:04:18;;;;;;;12.07;2.60;;;;;;;10.83;84.26;101998.31;5015270;28;20026;-76
2022/11/02 09:06:43;;;;;;;15.25;2.63;;;;;;;10.86;83.03;102011.09;5015281;28;20032;-78
2022/11/02 09:09:09;;;;;;;13.35;2.10;;;;;;;10.78;82.96;101992.50;5015057;28;20029;-75
2022/11/02 09:11:34;;;;;;;15.23;2.45;;;;;;;10.95;83.30;102010.66;5015298;28;20397;-78
2022/11/02 09:13:59;;;;;;;16.73;3.55;;;;;;;11.00;82.96;102011.28;5015264;28;20056;-74
2022/11/02 09:16:25;;;;;;;12.68;2.45;;;;;;;11.01;82.60;101999.19;5015277;28;20034;-74
2022/11/02 09:18:50;;;;;;;10.85;2.45;;;;;;;11.04;81.65;102007.66;5015202;28;20080;-76
2022/11/02 09:21:15;;;;;;;14.30;2.28;;;;;;;11.08;81.77;102019.53;5015005;28;20076;-79
2022/11/02 09:23:41;;;;;;;11.30;1.88;;;;;;;11.09;82.12;102013.44;5015146;28;20480;-74
2022/11/02 09:26:06;;;;;;;18.55;2.20;;;;;;;11.13;82.63;102016.75;5015359;28;20377;-76
2022/11/02 09:28:31;;;;;;;9.10;1.95;;;;;;;11.23;80.98;102019.75;5015651;28;20458;-78
2022/11/02 09:30:57;;;;;;;11.48;2.03;;;;;;;11.35;80.75;102029.50;5013896;28;20041;-83
2022/11/02 09:33:22;;;;;;;13.00;2.65;;;;;;;11.36;80.07;102019.09;5015145;28;20054;-82
2022/11/02 09:35:48;;;;;;;15.98;2.80;;;;;;;11.36;80.45;102010.50;5015039;28;20025;-82
2022/11/02 09:38:14;;;;;;;17.05;2.50;;;;;;;11.32;79.79;102017.56;5014917;28;20029;-84
2022/11/02 09:41:01;;;;;;;14.43;2.45;;;;;;;11.40;79.87;102024.94;5014961;28;20026;-84
2022/11/02 09:43:41;;;;;;;17.35;2.45;;;;;;;11.40;80.13;102025.78;5014866;28;20030;-83
2022/11/02 09:46:28;;;;;;;15.15;2.70;;;;;;;11.40;80.21;102030.13;5014949;28;20105;-83
2022/11/02 09:48:57;;;;;;;15.82;3.60;;;;;;;11.44;79.42;102026.50;5014471;28;20539;-84
2022/11/02 09:51:33;;;;;;;12.07;2.60;;;;;;;11.53;79.31;102031.22;5014589;28;20040;-83
2022/11/02 09:54:13;;;;;;;18.38;3.05;;;;;;;11.59;79.20;102035.25;5013881;28;20046;-83
2022/11/02 09:56:40;;;;;;;12.43;3.13;;;;;;;11.65;80.18;102038.41;5014206;28;20030;-87
2022/11/02 09:59:14;;;;;;;12.57;2.42;;;;;;;11.69;79.58;102034.72;5014092;28;20022;-88
2022/11/02 10:01:46;;;;;;;13.52;2.30;;;;;;;11.82;79.27;102036.78;5014518;28;20042;-87
2022/11/02 10:04:29;;;;;;;;;;;;;;;11.95;79.17;102041.28;5014770;28;20030;-90
2022/11/02 10:07:19;;;;;;;13.50;2.78;;;;;;;12.11;78.13;102053.47;5014199;28;19921;-84
2022/11/02 10:09:47;;;;;;;14.05;3.13;;;;;;;12.20;76.07;102053.84;5013922;28;20025;-82
2022/11/02 10:12:19;;;;;;;12.27;2.92;;;;;;;12.35;76.02;102049.63;5014016;28;20461;-79
2022/11/02 10:15:11;;;;;;;13.85;3.08;;;;;;;12.35;76.26;102060.00;5014310;28;20026;-73
2022/11/02 10:17:39;;;;;;;16.23;3.22;;;;;;;12.24;75.26;102062.28;5014055;28;20034;-84
2022/11/02 10:20:19;;;;;;;12.02;2.50;;;;;;;12.03;75.62;102009.81;5014016;28;20030;-75
2022/11/02 10:22:46;;;;;;;17.08;3.17;;;;;;;12.37;74.26;102072.88;5014017;28;20030;-75
2022/11/02 10:25:15;;;;;;;14.40;2.65;;;;;;;12.31;75.00;102067.09;5013991;28;20045;-74
2022/11/02 10:27:43;;;;;;;14.65;3.10;;;;;;;12.35;75.04;102083.31;5013852;28;20057;-75
2022/11/02 10:30:17;;;;;;;9.95;2.40;;;;;;;12.42;76.42;102071.72;5013801;28;20428;-76
2022/11/02 10:32:44;;;;;;;14.30;2.78;;;;;;;12.40;74.70;102075.31;5012617;28;20026;-75
2022/11/02 10:35:24;;;;;;;12.40;2.33;;;;;;;12.39;75.09;102066.72;5013758;28;20560;-75
2022/11/02 10:37:49;;;;;;;12.70;2.38;;;;;;;12.38;74.78;102066.75;5008494;28;20486;-75
2022/11/02 10:40:14;;;;;;;11.27;3.15;;;;;;;12.34;74.50;102069.50;5013459;28;20092;-71
2022/11/02 10:42:57;;;;;;;14.32;2.90;;;;;;;12.21;73.98;102047.75;5013867;28;20029;-71
2022/11/02 10:45:46;;;;;;;14.13;2.63;;;;;;;12.25;74.32;102066.56;5013619;28;20030;-75
2022/11/02 10:48:36;;;;;;;10.27;2.35;;;;;;;12.32;74.07;102086.91;5013822;28;20385;-74
2022/11/02 10:51:05;;;;;;;13.23;2.10;;;;;;;12.30;73.92;102083.56;5013564;28;20503;-71
2022/11/02 10:53:35;;;;;;;13.75;2.05;;;;;;;12.29;73.11;102088.78;5013102;28;20042;-74
2022/11/02 10:56:16;;;;;;;9.27;2.22;;;;;;;12.26;73.74;102083.75;5013228;28;20528;-73
2022/11/02 10:59:14;;;;;;;12.85;2.47;;;;;;;12.36;73.72;102095.34;5013645;28;20108;-73
2022/11/02 11:02:03;;;;;;;11.65;1.83;;;;;;;12.38;72.57;102095.25;5013425;28;20026;-74
2022/11/02 11:04:30;;;;;;;13.88;2.65;;;;;;;12.28;70.75;102080.19;5013335;28;20054;-78
2022/11/02 11:06:57;;;;;;;15.82;2.90;;;;;;;12.37;71.96;102088.41;5012992;28;20026;-75
2022/11/02 11:09:29;;;;;;;9.65;2.63;;;;;;;12.39;72.70;102096.94;5012788;28;20117;-75
2022/11/02 11:11:57;;;;;;;15.02;2.75;;;;;;;12.41;73.03;102088.19;5006176;28;20049;-74
2022/11/02 11:14:25;;;;;;;12.30;2.42;;;;;;;12.42;73.19;102092.44;5012130;28;20115;-74
2022/11/02 11:17:01;;;;;;;9.25;1.67;;;;;;;12.41;70.92;102092.53;5013178;28;20516;-73
2022/11/02 11:19:37;;;;;;;10.07;2.00;;;;;;;12.43;70.68;102086.34;5013111;28;20545;-74
2022/11/02 11:22:23;;;;;;;10.70;1.98;;;;;;;12.41;71.17;102077.81;5011449;28;20030;-73
2022/11/02 11:24:48;;;;;;;13.77;2.15;;;;;;;12.42;71.06;102082.09;5012980;28;20030;-74
2022/11/02 11:27:23;;;;;;;11.05;2.03;;;;;;;12.43;69.22;102086.34;5011699;28;20161;-74
2022/11/02 11:29:55;;;;;;;10.00;1.75;;;;;;;12.56;68.62;102097.75;5013217;28;20076;-74
2022/11/02 11:32:23;;;;;;;9.45;2.40;;;;;;;12.54;68.52;102083.22;5013275;28;20037;-75
2022/11/02 11:34:53;;;;;;;11.38;2.17;;;;;;;12.61;69.14;102080.22;5013099;28;20033;-74
2022/11/02 11:37:19;;;;;;;10.13;2.25;;;;;;;12.66;68.94;102079.97;5012911;28;20116;-81
2022/11/02 11:39:49;;;;;;;13.10;2.65;;;;;;;12.66;67.29;102079.16;5012803;28;20509;-82
2022/11/02 11:42:21;;;;;;;11.48;2.58;;;;;;;12.67;66.64;102076.47;5011186;28;20030;-82